sensor_id;sensor_type;location;lat;lon;timestamp;pressure;altitude;pressure_sealevel;temperature;humidity
63554;BME280;49699;48.072;7.800;2022-07-22T00:02:10;99724.19;;;20.38;66.78
63554;BME280;49699;48.072;7.800;2022-07-22T00:04:36;99722.25;;;20.40;66.78
63554;BME280;49699;48.072;7.800;2022-07-22T00:07:01;99714.44;;;20.38;66.81
63554;BME280;49699;48.072;7.800;2022-07-22T00:09:26;99716.13;;;20.39;66.71
63554;BME280;49699;48.072;7.800;2022-07-22T00:11:52;99710.97;;;20.38;66.82
63554;BME280;49699;48.072;7.800;2022-07-22T00:14:17;99719.03;;;20.36;66.81
63554;BME280;49699;48.072;7.800;2022-07-22T00:16:43;99711.13;;;20.36;66.62
63554;BME280;49699;48.072;7.800;2022-07-22T00:19:08;99707.50;;;20.37;66.49
63554;BME280;49699;48.072;7.800;2022-07-22T00:21:34;99704.97;;;20.36;66.39
63554;BME280;49699;48.072;7.800;2022-07-22T00:23:59;99701.78;;;20.32;66.72
63554;BME280;49699;48.072;7.800;2022-07-22T00:26:25;99705.94;;;20.25;67.00
63554;BME280;49699;48.072;7.800;2022-07-22T00:28:50;99701.69;;;20.15;67.22
63554;BME280;49699;48.072;7.800;2022-07-22T00:31:16;99707.53;;;20.08;67.64
63554;BME280;49699;48.072;7.800;2022-07-22T00:33:41;99693.38;;;20.00;67.86
63554;BME280;49699;48.072;7.800;2022-07-22T00:36:07;99699.78;;;19.88;68.30
63554;BME280;49699;48.072;7.800;2022-07-22T00:38:33;99692.59;;;19.70;68.75
63554;BME280;49699;48.072;7.800;2022-07-22T00:40:59;99694.09;;;19.54;69.31
63554;BME280;49699;48.072;7.800;2022-07-22T00:43:25;99684.88;;;19.38;69.82
63554;BME280;49699;48.072;7.800;2022-07-22T00:45:50;99686.97;;;19.25;70.25
63554;BME280;49699;48.072;7.800;2022-07-22T00:48:16;99686.97;;;19.16;70.59
63554;BME280;49699;48.072;7.800;2022-07-22T00:50:41;99693.03;;;19.06;70.99
63554;BME280;49699;48.072;7.800;2022-07-22T00:53:08;99693.88;;;18.97;71.40
63554;BME280;49699;48.072;7.800;2022-07-22T00:55:34;99697.31;;;18.88;71.74
63554;BME280;49699;48.072;7.800;2022-07-22T00:58:00;99692.56;;;18.82;71.88
63554;BME280;49699;48.072;7.800;2022-07-22T01:00:25;99692.03;;;18.79;71.92
63554;BME280;49699;48.072;7.800;2022-07-22T01:02:51;99690.34;;;18.78;72.05
63554;BME280;49699;48.072;7.800;2022-07-22T01:05:17;99690.75;;;18.73;72.24
63554;BME280;49699;48.072;7.800;2022-07-22T01:07:43;99684.06;;;18.69;72.44
63554;BME280;49699;48.072;7.800;2022-07-22T01:10:09;99686.25;;;18.64;72.88
63554;BME280;49699;48.072;7.800;2022-07-22T01:12:34;99692.88;;;18.58;73.07
63554;BME280;49699;48.072;7.800;2022-07-22T01:14:59;99690.63;;;18.54;73.05
63554;BME280;49699;48.072;7.800;2022-07-22T01:17:25;99683.44;;;18.56;73.18
63554;BME280;49699;48.072;7.800;2022-07-22T01:19:51;99685.59;;;18.62;72.97
63554;BME280;49699;48.072;7.800;2022-07-22T01:22:17;99688.75;;;18.65;72.68
63554;BME280;49699;48.072;7.800;2022-07-22T01:24:42;99681.56;;;18.67;72.71
63554;BME280;49699;48.072;7.800;2022-07-22T01:27:08;99693.50;;;18.71;72.59
63554;BME280;49699;48.072;7.800;2022-07-22T01:29:33;99692.16;;;18.77;72.32
63554;BME280;49699;48.072;7.800;2022-07-22T01:31:59;99695.19;;;18.82;72.36
63554;BME280;49699;48.072;7.800;2022-07-22T01:34:24;99689.25;;;18.80;72.31
63554;BME280;49699;48.072;7.800;2022-07-22T01:36:51;99689.66;;;18.76;72.64
63554;BME280;49699;48.072;7.800;2022-07-22T01:39:17;99688.81;;;18.75;72.69
63554;BME280;49699;48.072;7.800;2022-07-22T01:41:43;99693.13;;;18.76;72.62
63554;BME280;49699;48.072;7.800;2022-07-22T01:44:11;99691.44;;;18.75;72.82
63554;BME280;49699;48.072;7.800;2022-07-22T01:46:37;99688.81;;;18.75;72.75
63554;BME280;49699;48.072;7.800;2022-07-22T01:49:03;99696.72;;;18.75;72.73
63554;BME280;49699;48.072;7.800;2022-07-22T01:51:35;99685.34;;;18.75;72.65
63554;BME280;49699;48.072;7.800;2022-07-22T01:54:00;99691.31;;;18.77;72.61
63554;BME280;49699;48.072;7.800;2022-07-22T01:56:26;99692.41;;;18.74;72.70
63554;BME280;49699;48.072;7.800;2022-07-22T01:58:51;99689.06;;;18.72;72.88
63554;BME280;49699;48.072;7.800;2022-07-22T02:01:22;99696.47;;;18.78;72.61
63554;BME280;49699;48.072;7.800;2022-07-22T02:03:47;99689.66;;;18.85;72.39
63554;BME280;49699;48.072;7.800;2022-07-22T02:06:12;99689.25;;;18.90;72.28
63554;BME280;49699;48.072;7.800;2022-07-22T02:08:38;99684.56;;;18.93;72.06
63554;BME280;49699;48.072;7.800;2022-07-22T02:11:14;99683.47;;;18.96;71.92
63554;BME280;49699;48.072;7.800;2022-07-22T02:13:49;99682.34;;;18.98;71.99
63554;BME280;49699;48.072;7.800;2022-07-22T02:16:14;99675.81;;;19.02;71.78
63554;BME280;49699;48.072;7.800;2022-07-22T02:18:40;99676.25;;;19.07;71.53
63554;BME280;49699;48.072;7.800;2022-07-22T02:21:07;99677.78;;;19.10;71.50
63554;BME280;49699;48.072;7.800;2022-07-22T02:23:33;99676.25;;;19.07;71.42
63554;BME280;49699;48.072;7.800;2022-07-22T02:25:58;99676.38;;;19.06;71.52
63554;BME280;49699;48.072;7.800;2022-07-22T02:28:23;99681.09;;;19.02;71.63
63554;BME280;49699;48.072;7.800;2022-07-22T02:30:49;99680.97;;;18.94;72.06
63554;BME280;49699;48.072;7.800;2022-07-22T02:33:17;99691.47;;;18.85;72.12
63554;BME280;49699;48.072;7.800;2022-07-22T02:35:43;99687.84;;;18.76;72.55
63554;BME280;49699;48.072;7.800;2022-07-22T02:38:09;99685.72;;;18.70;72.69
63554;BME280;49699;48.072;7.800;2022-07-22T02:40:37;99691.25;;;18.67;72.59
63554;BME280;49699;48.072;7.800;2022-07-22T02:43:03;99684.31;;;18.66;72.61
63554;BME280;49699;48.072;7.800;2022-07-22T02:45:32;99695.97;;;18.63;72.61
63554;BME280;49699;48.072;7.800;2022-07-22T02:47:58;99686.97;;;18.66;72.50
63554;BME280;49699;48.072;7.800;2022-07-22T02:50:25;99686.97;;;18.66;72.36
63554;BME280;49699;48.072;7.800;2022-07-22T02:52:52;99690.44;;;18.66;72.51
63554;BME280;49699;48.072;7.800;2022-07-22T02:55:18;99692.94;;;18.68;72.38
63554;BME280;49699;48.072;7.800;2022-07-22T02:57:45;99686.69;;;18.69;72.36
63554;BME280;49699;48.072;7.800;2022-07-22T03:00:12;99694.59;;;18.69;72.28
63554;BME280;49699;48.072;7.800;2022-07-22T03:02:39;99687.78;;;18.66;72.44
63554;BME280;49699;48.072;7.800;2022-07-22T03:05:06;99687.66;;;18.68;72.28
63554;BME280;49699;48.072;7.800;2022-07-22T03:07:34;99683.09;;;18.70;72.35
63554;BME280;49699;48.072;7.800;2022-07-22T03:10:01;99689.06;;;18.72;72.20
63554;BME280;49699;48.072;7.800;2022-07-22T03:12:26;99683.81;;;18.72;72.10
63554;BME280;49699;48.072;7.800;2022-07-22T03:14:52;99680.59;;;18.68;72.14
63554;BME280;49699;48.072;7.800;2022-07-22T03:17:18;99675.44;;;18.67;72.34
63554;BME280;49699;48.072;7.800;2022-07-22T03:19:44;99680.97;;;18.64;72.31
63554;BME280;49699;48.072;7.800;2022-07-22T03:22:09;99690.16;;;18.60;72.56
63554;BME280;49699;48.072;7.800;2022-07-22T03:24:35;99677.06;;;18.58;72.63
63554;BME280;49699;48.072;7.800;2022-07-22T03:27:00;99671.69;;;18.60;72.53
63554;BME280;49699;48.072;7.800;2022-07-22T03:29:29;99673.06;;;18.64;72.42
63554;BME280;49699;48.072;7.800;2022-07-22T03:31:55;99681.81;;;18.64;72.30
63554;BME280;49699;48.072;7.800;2022-07-22T03:34:35;99681.28;;;18.61;72.41
63554;BME280;49699;48.072;7.800;2022-07-22T03:37:04;99679.84;;;18.57;72.50
63554;BME280;49699;48.072;7.800;2022-07-22T03:39:30;99681.78;;;18.55;72.50
63554;BME280;49699;48.072;7.800;2022-07-22T03:41:56;99681.78;;;18.55;72.58
63554;BME280;49699;48.072;7.800;2022-07-22T03:44:22;99684.53;;;18.53;72.46
63554;BME280;49699;48.072;7.800;2022-07-22T03:46:47;99680.22;;;18.52;72.56
63554;BME280;49699;48.072;7.800;2022-07-22T03:49:14;99678.44;;;18.53;72.49
63554;BME280;49699;48.072;7.800;2022-07-22T03:51:40;99679.53;;;18.50;72.70
63554;BME280;49699;48.072;7.800;2022-07-22T03:54:05;99675.22;;;18.49;72.66
63554;BME280;49699;48.072;7.800;2022-07-22T03:56:31;99672.00;;;18.46;72.74
63554;BME280;49699;48.072;7.800;2022-07-22T03:58:57;99676.44;;;18.45;72.89
63554;BME280;49699;48.072;7.800;2022-07-22T04:01:23;99681.72;;;18.45;72.83
63554;BME280;49699;48.072;7.800;2022-07-22T04:03:49;99673.97;;;18.44;72.95
63554;BME280;49699;48.072;7.800;2022-07-22T04:06:28;99671.59;;;18.41;73.15
63554;BME280;49699;48.072;7.800;2022-07-22T04:09:00;99674.75;;;18.34;73.46
63554;BME280;49699;48.072;7.800;2022-07-22T04:11:26;99670.94;;;18.27;73.61
63554;BME280;49699;48.072;7.800;2022-07-22T04:13:52;99664.09;;;18.15;73.92
63554;BME280;49699;48.072;7.800;2022-07-22T04:16:18;99665.88;;;18.05;74.41
63554;BME280;49699;48.072;7.800;2022-07-22T04:18:53;99665.53;;;17.98;74.71
63554;BME280;49699;48.072;7.800;2022-07-22T04:21:33;99665.66;;;17.97;74.79
63554;BME280;49699;48.072;7.800;2022-07-22T04:24:03;99665.91;;;17.94;74.96
63554;BME280;49699;48.072;7.800;2022-07-22T04:26:30;99663.41;;;17.92;75.06
63554;BME280;49699;48.072;7.800;2022-07-22T04:28:56;99664.13;;;17.94;75.09
63554;BME280;49699;48.072;7.800;2022-07-22T04:31:21;99656.69;;;17.99;74.97
63554;BME280;49699;48.072;7.800;2022-07-22T04:33:53;99652.13;;;18.01;74.91
63554;BME280;49699;48.072;7.800;2022-07-22T04:36:19;99656.81;;;17.98;75.06
63554;BME280;49699;48.072;7.800;2022-07-22T04:38:45;99661.81;;;18.01;75.21
63554;BME280;49699;48.072;7.800;2022-07-22T04:41:10;99657.13;;;18.04;75.01
63554;BME280;49699;48.072;7.800;2022-07-22T04:43:36;99663.81;;;18.09;74.91
63554;BME280;49699;48.072;7.800;2022-07-22T04:46:01;99661.72;;;18.12;75.04
63554;BME280;49699;48.072;7.800;2022-07-22T04:48:31;99662.16;;;18.08;75.37
63554;BME280;49699;48.072;7.800;2022-07-22T04:51:01;99653.78;;;18.02;75.86
63554;BME280;49699;48.072;7.800;2022-07-22T04:53:27;99665.41;;;18.00;76.08
63554;BME280;49699;48.072;7.800;2022-07-22T04:55:53;99660.59;;;18.05;75.99
63554;BME280;49699;48.072;7.800;2022-07-22T04:58:19;99660.06;;;18.11;75.81
63554;BME280;49699;48.072;7.800;2022-07-22T05:00:46;99654.78;;;18.11;76.03
63554;BME280;49699;48.072;7.800;2022-07-22T05:03:12;99654.13;;;18.09;76.36
63554;BME280;49699;48.072;7.800;2022-07-22T05:05:40;99653.81;;;18.12;76.19
63554;BME280;49699;48.072;7.800;2022-07-22T05:08:06;99656.19;;;18.15;76.19
63554;BME280;49699;48.072;7.800;2022-07-22T05:10:32;99654.28;;;18.17;76.28
63554;BME280;49699;48.072;7.800;2022-07-22T05:12:58;99648.75;;;18.20;76.33
63554;BME280;49699;48.072;7.800;2022-07-22T05:15:25;99648.63;;;18.22;76.37
63554;BME280;49699;48.072;7.800;2022-07-22T05:17:50;99656.41;;;18.23;76.51
63554;BME280;49699;48.072;7.800;2022-07-22T05:20:21;99655.16;;;18.27;76.50
63554;BME280;49699;48.072;7.800;2022-07-22T05:22:47;99651.16;;;18.33;76.42
63554;BME280;49699;48.072;7.800;2022-07-22T05:25:16;99657.84;;;18.37;76.32
63554;BME280;49699;48.072;7.800;2022-07-22T05:27:49;99661.19;;;18.39;76.46
63554;BME280;49699;48.072;7.800;2022-07-22T05:30:17;99658.53;;;18.39;76.36
63554;BME280;49699;48.072;7.800;2022-07-22T05:32:42;99665.09;;;18.45;76.30
63554;BME280;49699;48.072;7.800;2022-07-22T05:35:09;99664.16;;;18.55;75.95
63554;BME280;49699;48.072;7.800;2022-07-22T05:37:36;99659.63;;;18.67;75.73
63554;BME280;49699;48.072;7.800;2022-07-22T05:40:03;99661.75;;;18.73;75.46
63554;BME280;49699;48.072;7.800;2022-07-22T05:42:29;99662.19;;;18.78;75.30
63554;BME280;49699;48.072;7.800;2022-07-22T05:44:54;99664.97;;;18.86;75.05
63554;BME280;49699;48.072;7.800;2022-07-22T05:47:20;99656.53;;;18.92;74.96
63554;BME280;49699;48.072;7.800;2022-07-22T05:49:45;99656.94;;;18.97;74.86
63554;BME280;49699;48.072;7.800;2022-07-22T05:52:12;99649.88;;;18.98;74.84
63554;BME280;49699;48.072;7.800;2022-07-22T05:54:38;99656.53;;;19.02;74.94
63554;BME280;49699;48.072;7.800;2022-07-22T05:57:05;99661.25;;;19.08;74.58
63554;BME280;49699;48.072;7.800;2022-07-22T05:59:33;99659.88;;;19.14;74.57
63554;BME280;49699;48.072;7.800;2022-07-22T06:01:59;99662.94;;;19.19;74.44
63554;BME280;49699;48.072;7.800;2022-07-22T06:04:35;99656.00;;;19.27;74.25
63554;BME280;49699;48.072;7.800;2022-07-22T06:07:01;99659.91;;;19.33;74.01
63554;BME280;49699;48.072;7.800;2022-07-22T06:09:26;99654.75;;;19.41;73.81
63554;BME280;49699;48.072;7.800;2022-07-22T06:11:52;99652.16;;;19.51;73.65
63554;BME280;49699;48.072;7.800;2022-07-22T06:14:17;99662.41;;;19.54;73.78
63554;BME280;49699;48.072;7.800;2022-07-22T06:16:43;99654.78;;;19.60;73.68
63554;BME280;49699;48.072;7.800;2022-07-22T06:19:09;99658.53;;;19.67;73.47
63554;BME280;49699;48.072;7.800;2022-07-22T06:21:34;99655.03;;;19.76;73.23
63554;BME280;49699;48.072;7.800;2022-07-22T06:24:02;99656.97;;;19.84;73.02
63554;BME280;49699;48.072;7.800;2022-07-22T06:26:27;99655.28;;;19.93;72.77
63554;BME280;49699;48.072;7.800;2022-07-22T06:28:54;99655.66;;;20.07;72.25
63554;BME280;49699;48.072;7.800;2022-07-22T06:31:20;99653.53;;;20.21;71.90
63554;BME280;49699;48.072;7.800;2022-07-22T06:33:45;99653.22;;;20.33;71.61
63554;BME280;49699;48.072;7.800;2022-07-22T06:36:11;99654.56;;;20.47;71.15
63554;BME280;49699;48.072;7.800;2022-07-22T06:38:37;99662.03;;;20.61;70.57
63554;BME280;49699;48.072;7.800;2022-07-22T06:41:11;99660.59;;;20.67;70.41
63554;BME280;49699;48.072;7.800;2022-07-22T06:44:05;99653.47;;;20.77;70.23
63554;BME280;49699;48.072;7.800;2022-07-22T06:46:43;99646.88;;;20.81;70.27
63554;BME280;49699;48.072;7.800;2022-07-22T06:49:09;99639.88;;;20.90;69.75
63554;BME280;49699;48.072;7.800;2022-07-22T06:51:35;99641.94;;;20.96;69.54
63554;BME280;49699;48.072;7.800;2022-07-22T06:54:00;99640.63;;;21.00;69.36
63554;BME280;49699;48.072;7.800;2022-07-22T06:56:26;99643.69;;;21.05;69.26
63554;BME280;49699;48.072;7.800;2022-07-22T06:58:52;99637.09;;;21.09;69.20
63554;BME280;49699;48.072;7.800;2022-07-22T07:01:18;99642.88;;;21.22;68.80
63554;BME280;49699;48.072;7.800;2022-07-22T07:03:52;99640.81;;;21.34;68.40
63554;BME280;49699;48.072;7.800;2022-07-22T07:06:18;99643.56;;;21.42;68.18
63554;BME280;49699;48.072;7.800;2022-07-22T07:09:06;99634.38;;;21.54;67.69
63554;BME280;49699;48.072;7.800;2022-07-22T07:11:33;99640.13;;;21.67;67.33
63554;BME280;49699;48.072;7.800;2022-07-22T07:14:01;99635.56;;;21.77;66.63
63554;BME280;49699;48.072;7.800;2022-07-22T07:16:27;99635.94;;;21.82;66.75
63554;BME280;49699;48.072;7.800;2022-07-22T07:18:52;99632.88;;;21.95;66.20
63554;BME280;49699;48.072;7.800;2022-07-22T07:21:18;99633.31;;;22.08;65.91
63554;BME280;49699;48.072;7.800;2022-07-22T07:23:44;99631.88;;;22.22;65.54
63554;BME280;49699;48.072;7.800;2022-07-22T07:26:09;99632.16;;;22.37;65.21
63554;BME280;49699;48.072;7.800;2022-07-22T07:28:35;99633.81;;;22.46;64.87
63554;BME280;49699;48.072;7.800;2022-07-22T07:31:06;99629.56;;;22.61;64.34
63554;BME280;49699;48.072;7.800;2022-07-22T07:33:32;99618.34;;;22.75;64.11
63554;BME280;49699;48.072;7.800;2022-07-22T07:35:58;99610.78;;;22.89;63.56
63554;BME280;49699;48.072;7.800;2022-07-22T07:38:35;99613.47;;;23.05;63.46
63554;BME280;49699;48.072;7.800;2022-07-22T07:41:03;99616.78;;;23.15;63.00
63554;BME280;49699;48.072;7.800;2022-07-22T07:43:28;99617.31;;;23.18;63.05
63554;BME280;49699;48.072;7.800;2022-07-22T07:45:54;99620.31;;;23.24;62.87
63554;BME280;49699;48.072;7.800;2022-07-22T07:48:19;99614.50;;;23.36;62.50
63554;BME280;49699;48.072;7.800;2022-07-22T07:50:45;99611.16;;;23.50;62.02
63554;BME280;49699;48.072;7.800;2022-07-22T07:53:15;99619.69;;;23.62;61.68
63554;BME280;49699;48.072;7.800;2022-07-22T07:55:41;99621.31;;;23.71;61.23
63554;BME280;49699;48.072;7.800;2022-07-22T07:58:07;99613.19;;;23.81;60.98
63554;BME280;49699;48.072;7.800;2022-07-22T08:00:33;99622.63;;;24.00;60.47
63554;BME280;49699;48.072;7.800;2022-07-22T08:03:02;99612.59;;;24.10;60.04
63554;BME280;49699;48.072;7.800;2022-07-22T08:05:30;99617.38;;;24.22;59.71
63554;BME280;49699;48.072;7.800;2022-07-22T08:07:57;99608.72;;;24.37;59.31
63554;BME280;49699;48.072;7.800;2022-07-22T08:10:22;99606.00;;;24.53;58.78
63554;BME280;49699;48.072;7.800;2022-07-22T08:12:58;99603.91;;;24.71;58.48
63554;BME280;49699;48.072;7.800;2022-07-22T08:15:41;99602.34;;;24.85;57.85
63554;BME280;49699;48.072;7.800;2022-07-22T08:18:22;99609.09;;;24.96;57.60
63554;BME280;49699;48.072;7.800;2022-07-22T08:20:48;99605.44;;;24.97;57.47
63554;BME280;49699;48.072;7.800;2022-07-22T08:23:15;99601.25;;;25.02;57.32
63554;BME280;49699;48.072;7.800;2022-07-22T08:25:43;99598.00;;;25.15;56.71
63554;BME280;49699;48.072;7.800;2022-07-22T08:28:09;99595.19;;;25.31;56.11
63554;BME280;49699;48.072;7.800;2022-07-22T08:30:35;99594.63;;;25.44;55.88
63554;BME280;49699;48.072;7.800;2022-07-22T08:33:01;99579.72;;;25.49;56.08
63554;BME280;49699;48.072;7.800;2022-07-22T08:35:27;99581.31;;;25.58;55.42
63554;BME280;49699;48.072;7.800;2022-07-22T08:37:52;99590.38;;;25.72;55.19
63554;BME280;49699;48.072;7.800;2022-07-22T08:40:18;99583.94;;;25.81;54.66
63554;BME280;49699;48.072;7.800;2022-07-22T08:42:46;99582.50;;;25.93;54.43
63554;BME280;49699;48.072;7.800;2022-07-22T08:45:11;99580.19;;;26.05;54.12
63554;BME280;49699;48.072;7.800;2022-07-22T08:47:38;99572.34;;;26.18;53.63
63554;BME280;49699;48.072;7.800;2022-07-22T08:50:15;99569.91;;;26.32;53.48
63554;BME280;49699;48.072;7.800;2022-07-22T08:52:50;99568.59;;;26.42;53.17
63554;BME280;49699;48.072;7.800;2022-07-22T08:55:17;99571.72;;;26.46;52.95
63554;BME280;49699;48.072;7.800;2022-07-22T08:57:47;99575.88;;;26.48;52.60
63554;BME280;49699;48.072;7.800;2022-07-22T09:00:17;99567.72;;;26.56;52.19
63554;BME280;49699;48.072;7.800;2022-07-22T09:02:44;99562.53;;;26.70;51.82
63554;BME280;49699;48.072;7.800;2022-07-22T09:05:13;99544.66;;;26.85;51.53
63554;BME280;49699;48.072;7.800;2022-07-22T09:07:41;99547.13;;;27.08;50.84
63554;BME280;49699;48.072;7.800;2022-07-22T09:10:18;99546.16;;;27.37;49.96
63554;BME280;49699;48.072;7.800;2022-07-22T09:13:07;99539.63;;;27.46;49.94
63554;BME280;49699;48.072;7.800;2022-07-22T09:15:56;99536.47;;;27.57;49.56
63554;BME280;49699;48.072;7.800;2022-07-22T09:18:50;99535.75;;;27.70;48.51
63554;BME280;49699;48.072;7.800;2022-07-22T09:21:35;99528.53;;;27.70;48.45
63554;BME280;49699;48.072;7.800;2022-07-22T09:24:27;99540.09;;;27.77;48.67
63554;BME280;49699;48.072;7.800;2022-07-22T09:26:56;99539.16;;;27.91;48.38
63554;BME280;49699;48.072;7.800;2022-07-22T09:29:51;99531.41;;;28.03;48.18
63554;BME280;49699;48.072;7.800;2022-07-22T09:32:19;99536.44;;;28.19;48.05
63554;BME280;49699;48.072;7.800;2022-07-22T09:35:04;99533.41;;;28.36;47.66
63554;BME280;49699;48.072;7.800;2022-07-22T09:42:53;99532.09;;;28.66;47.26
63554;BME280;49699;48.072;7.800;2022-07-22T09:45:21;99531.09;;;28.80;46.93
63554;BME280;49699;48.072;7.800;2022-07-22T09:47:48;99530.28;;;28.86;46.75
63554;BME280;49699;48.072;7.800;2022-07-22T09:50:34;99532.38;;;28.97;46.68
63554;BME280;49699;48.072;7.800;2022-07-22T09:53:20;99525.78;;;29.20;46.13
63554;BME280;49699;48.072;7.800;2022-07-22T09:56:05;99527.03;;;29.44;45.83
63554;BME280;49699;48.072;7.800;2022-07-22T09:58:34;99525.34;;;29.62;45.54
63554;BME280;49699;48.072;7.800;2022-07-22T10:01:04;99526.97;;;29.83;45.14
63554;BME280;49699;48.072;7.800;2022-07-22T10:03:33;99523.66;;;29.88;44.57
63554;BME280;49699;48.072;7.800;2022-07-22T10:06:02;99518.06;;;30.02;44.22
63554;BME280;49699;48.072;7.800;2022-07-22T10:08:30;99513.41;;;30.29;43.80
63554;BME280;49699;48.072;7.800;2022-07-22T10:11:03;99510.63;;;30.49;43.46
63554;BME280;49699;48.072;7.800;2022-07-22T10:13:30;99507.28;;;30.60;43.30
63554;BME280;49699;48.072;7.800;2022-07-22T10:15:56;99505.97;;;30.69;42.99
63554;BME280;49699;48.072;7.800;2022-07-22T10:18:23;99506.78;;;30.77;42.70
63554;BME280;49699;48.072;7.800;2022-07-22T10:21:08;99503.66;;;30.80;42.65
63554;BME280;49699;48.072;7.800;2022-07-22T10:23:34;99496.34;;;30.87;41.87
63554;BME280;49699;48.072;7.800;2022-07-22T10:26:02;99490.13;;;30.93;42.08
63554;BME280;49699;48.072;7.800;2022-07-22T10:28:35;99488.56;;;31.03;41.96
63554;BME280;49699;48.072;7.800;2022-07-22T10:33:44;99480.88;;;31.14;41.40
63554;BME280;49699;48.072;7.800;2022-07-22T10:36:10;99480.66;;;31.15;41.15
63554;BME280;49699;48.072;7.800;2022-07-22T10:38:37;99474.16;;;31.23;40.98
63554;BME280;49699;48.072;7.800;2022-07-22T10:41:04;99470.66;;;31.22;40.86
63554;BME280;49699;48.072;7.800;2022-07-22T10:43:46;99476.59;;;31.31;41.02
63554;BME280;49699;48.072;7.800;2022-07-22T10:46:13;99475.84;;;31.42;40.70
63554;BME280;49699;48.072;7.800;2022-07-22T10:51:17;99473.63;;;31.57;40.30
63554;BME280;49699;48.072;7.800;2022-07-22T10:56:22;99469.41;;;31.86;39.52
63554;BME280;49699;48.072;7.800;2022-07-22T10:58:53;99459.06;;;32.01;39.54
63554;BME280;49699;48.072;7.800;2022-07-22T11:01:22;99463.22;;;32.16;38.99
63554;BME280;49699;48.072;7.800;2022-07-22T11:03:49;99457.03;;;32.15;38.98
63554;BME280;49699;48.072;7.800;2022-07-22T11:06:27;99453.13;;;32.29;39.05
63554;BME280;49699;48.072;7.800;2022-07-22T11:08:58;99446.84;;;32.35;38.97
63554;BME280;49699;48.072;7.800;2022-07-22T11:11:45;99444.81;;;32.31;38.45
63554;BME280;49699;48.072;7.800;2022-07-22T11:16:41;99442.28;;;32.18;38.16
63554;BME280;49699;48.072;7.800;2022-07-22T11:19:08;99441.41;;;32.24;38.15
63554;BME280;49699;48.072;7.800;2022-07-22T11:21:34;99437.41;;;32.26;38.32
63554;BME280;49699;48.072;7.800;2022-07-22T11:24:02;99439.88;;;32.28;38.74
63554;BME280;49699;48.072;7.800;2022-07-22T11:26:46;99428.34;;;32.39;38.89
63554;BME280;49699;48.072;7.800;2022-07-22T11:29:33;99426.34;;;32.46;38.38
63554;BME280;49699;48.072;7.800;2022-07-22T11:32:00;99416.44;;;32.58;38.40
63554;BME280;49699;48.072;7.800;2022-07-22T11:34:27;99420.44;;;32.67;37.89
63554;BME280;49699;48.072;7.800;2022-07-22T11:36:53;99416.41;;;32.88;37.38
63554;BME280;49699;48.072;7.800;2022-07-22T11:39:21;99422.63;;;33.12;37.14
63554;BME280;49699;48.072;7.800;2022-07-22T11:41:49;99417.22;;;33.24;37.06
63554;BME280;49699;48.072;7.800;2022-07-22T11:44:18;99413.00;;;33.39;37.12
63554;BME280;49699;48.072;7.800;2022-07-22T11:46:44;99423.22;;;33.37;36.25
63554;BME280;49699;48.072;7.800;2022-07-22T11:49:12;99411.09;;;33.17;36.86
63554;BME280;49699;48.072;7.800;2022-07-22T11:51:38;99417.22;;;33.00;37.31
63554;BME280;49699;48.072;7.800;2022-07-22T11:54:04;99409.25;;;33.05;37.49
63554;BME280;49699;48.072;7.800;2022-07-22T11:56:31;99416.28;;;33.18;36.96
63554;BME280;49699;48.072;7.800;2022-07-22T11:58:57;99401.50;;;33.32;36.75
63554;BME280;49699;48.072;7.800;2022-07-22T12:01:26;99403.59;;;33.54;36.61
63554;BME280;49699;48.072;7.800;2022-07-22T12:04:04;99404.72;;;33.69;35.76
63554;BME280;49699;48.072;7.800;2022-07-22T12:06:31;99393.84;;;33.64;35.84
63554;BME280;49699;48.072;7.800;2022-07-22T12:09:05;99391.56;;;33.73;35.79
63554;BME280;49699;48.072;7.800;2022-07-22T12:11:34;99388.72;;;33.91;35.36
63554;BME280;49699;48.072;7.800;2022-07-22T12:14:08;99391.03;;;33.99;35.37
63554;BME280;49699;48.072;7.800;2022-07-22T12:16:35;99394.56;;;34.00;35.46
63554;BME280;49699;48.072;7.800;2022-07-22T12:19:03;99386.22;;;34.01;35.37
63554;BME280;49699;48.072;7.800;2022-07-22T12:21:31;99377.06;;;34.02;35.06
63554;BME280;49699;48.072;7.800;2022-07-22T12:24:03;99375.22;;;34.20;34.59
63554;BME280;49699;48.072;7.800;2022-07-22T12:26:44;99366.81;;;34.33;34.51
63554;BME280;49699;48.072;7.800;2022-07-22T12:29:14;99364.84;;;34.45;34.29
63554;BME280;49699;48.072;7.800;2022-07-22T12:31:48;99356.28;;;34.48;34.51
63554;BME280;49699;48.072;7.800;2022-07-22T12:34:16;99349.47;;;34.62;34.12
63554;BME280;49699;48.072;7.800;2022-07-22T12:36:45;99356.41;;;34.58;33.79
63554;BME280;49699;48.072;7.800;2022-07-22T12:39:14;99353.09;;;34.51;33.93
63554;BME280;49699;48.072;7.800;2022-07-22T12:41:47;99345.47;;;34.48;33.86
63554;BME280;49699;48.072;7.800;2022-07-22T12:44:25;99341.44;;;34.51;33.74
63554;BME280;49699;48.072;7.800;2022-07-22T12:46:55;99346.19;;;34.60;33.69
63554;BME280;49699;48.072;7.800;2022-07-22T12:49:23;99350.13;;;34.69;33.60
63554;BME280;49699;48.072;7.800;2022-07-22T12:52:12;99349.72;;;34.77;33.74
63554;BME280;49699;48.072;7.800;2022-07-22T12:54:40;99345.91;;;34.95;33.55
63554;BME280;49699;48.072;7.800;2022-07-22T12:57:07;99339.94;;;35.10;33.49
63554;BME280;49699;48.072;7.800;2022-07-22T12:59:34;99344.16;;;35.23;33.21
63554;BME280;49699;48.072;7.800;2022-07-22T13:01:59;99347.25;;;35.31;32.96
63554;BME280;49699;48.072;7.800;2022-07-22T13:04:25;99343.47;;;35.54;32.59
63554;BME280;49699;48.072;7.800;2022-07-22T13:06:51;99345.03;;;35.72;32.30
63554;BME280;49699;48.072;7.800;2022-07-22T13:09:16;99353.56;;;35.80;32.14
63554;BME280;49699;48.072;7.800;2022-07-22T13:11:42;99356.53;;;35.79;32.03
63554;BME280;49699;48.072;7.800;2022-07-22T13:14:13;99347.63;;;35.83;31.66
63554;BME280;49699;48.072;7.800;2022-07-22T13:16:39;99338.22;;;35.91;31.44
63554;BME280;49699;48.072;7.800;2022-07-22T13:19:04;99349.00;;;35.86;31.37
63554;BME280;49699;48.072;7.800;2022-07-22T13:21:32;99355.22;;;35.87;31.44
63554;BME280;49699;48.072;7.800;2022-07-22T13:23:57;99357.09;;;35.81;31.52